createdAt,value
2018-03-16T01:34:19.242Z,96497.05
2018-03-16T01:36:48.010Z,96497.80
2018-03-16T01:39:16.506Z,96511.13
2018-03-16T01:41:45.285Z,96508.06
2018-03-16T01:44:13.844Z,96516.96
2018-03-16T01:46:43.058Z,96506.59
2018-03-16T01:49:20.048Z,96513.55
2018-03-16T01:51:48.572Z,96508.80
2018-03-16T01:54:17.022Z,96510.87
2018-03-16T01:56:45.592Z,96520.16
2018-03-16T01:59:15.523Z,96517.38
2018-03-16T02:01:44.083Z,96525.84
2018-03-16T02:04:12.600Z,96527.20
2018-03-16T02:06:41.079Z,96520.05
2018-03-16T02:09:23.524Z,96510.70
2018-03-16T02:11:52.041Z,96514.31
2018-03-16T02:14:20.550Z,96514.81
2018-03-16T02:16:49.057Z,96519.28
2018-03-16T02:19:18.059Z,96522.14
2018-03-16T02:21:46.536Z,96523.44
2018-03-16T02:24:15.022Z,96520.72
2018-03-16T02:26:43.462Z,96522.39
2018-03-16T02:29:11.983Z,96522.14
2018-03-16T02:31:40.506Z,96526.74
2018-03-16T02:34:09.087Z,96527.08
2018-03-16T02:36:37.999Z,96527.31
2018-03-16T02:39:06.563Z,96528.91
2018-03-16T02:41:35.092Z,96522.38
2018-03-16T02:44:03.611Z,96523.48
2018-03-16T02:46:34.597Z,96521.09
2018-03-16T02:49:03.051Z,96512.00
2018-03-16T02:51:31.542Z,96519.38
2018-03-16T02:54:00.147Z,96514.61
2018-03-16T02:56:29.985Z,96520.88
2018-03-16T02:58:58.471Z,96521.47
2018-03-16T03:01:27.008Z,96523.31
2018-03-16T03:03:55.538Z,96524.77
2018-03-16T03:06:30.960Z,96520.25
2018-03-16T03:08:59.479Z,96519.78
2018-03-16T03:11:27.972Z,96523.68
2018-03-16T03:13:56.528Z,96524.69
2018-03-16T03:16:25.076Z,96527.66
2018-03-16T03:18:53.576Z,96532.44
2018-03-16T03:21:22.622Z,96532.85
2018-03-16T03:23:51.095Z,96535.70
2018-03-16T03:26:19.662Z,96534.11
2018-03-16T03:28:48.277Z,96536.12
2018-03-16T03:31:17.110Z,96542.61
2018-03-16T03:33:45.689Z,96536.65
2018-03-16T03:36:14.200Z,96538.92
2018-03-16T03:38:42.644Z,96544.06
2018-03-16T03:41:12.518Z,96545.27
2018-03-16T03:43:41.068Z,96545.58
2018-03-16T03:46:09.648Z,96545.45
2018-03-16T03:48:49.868Z,96544.41
2018-03-16T03:51:18.906Z,96542.65
2018-03-16T03:53:47.619Z,96544.99
2018-03-16T03:56:16.276Z,96552.94
2018-03-16T03:58:44.844Z,96548.26
2018-03-16T04:01:13.373Z,96550.25
2018-03-16T04:03:42.043Z,96550.45
2018-03-16T04:06:11.348Z,96542.75
2018-03-16T04:08:39.957Z,96543.23
2018-03-16T04:11:08.934Z,96535.72
2018-03-16T04:13:37.495Z,96531.57
2018-03-16T04:16:06.122Z,96524.18
2018-03-16T04:18:34.632Z,96539.45
2018-03-16T04:21:11.484Z,96535.31
2018-03-16T04:23:40.233Z,96544.94
2018-03-16T04:26:08.877Z,96547.53
2018-03-16T04:28:37.383Z,96541.66
2018-03-16T04:31:05.921Z,96539.75
2018-03-16T04:33:34.780Z,96551.03
2018-03-16T04:36:03.870Z,96547.97
2018-03-16T04:38:32.387Z,96556.90
2018-03-16T04:41:00.963Z,96559.53
2018-03-16T04:43:34.621Z,96558.47
2018-03-16T04:46:03.192Z,96560.79
2018-03-16T04:48:32.345Z,96558.57
2018-03-16T04:51:00.925Z,96567.45
2018-03-16T04:53:29.502Z,96564.14
2018-03-16T04:55:58.098Z,96563.30
2018-03-16T04:58:27.210Z,96562.44
2018-03-16T05:00:55.752Z,96564.41
2018-03-16T05:03:29.425Z,96566.32
2018-03-16T05:05:57.925Z,96562.28
2018-03-16T05:08:50.497Z,96569.95
2018-03-16T05:11:19.281Z,96566.77
2018-03-16T05:13:48.849Z,96568.77
2018-03-16T05:16:18.812Z,96564.82
2018-03-16T05:18:48.380Z,96568.91
2018-03-16T05:21:18.132Z,96569.67
2018-03-16T05:23:48.744Z,96560.45
2018-03-16T05:26:43.292Z,96565.55
2018-03-16T05:29:12.887Z,96563.09
2018-03-16T05:31:42.810Z,96568.95
2018-03-16T05:34:12.391Z,96572.69
2018-03-16T05:36:42.210Z,96568.09
2018-03-16T05:39:11.899Z,96568.86
2018-03-16T05:41:41.528Z,96570.44
2018-03-16T05:44:11.223Z,96568.14
2018-03-16T05:46:43.716Z,96568.91
2018-03-16T05:49:13.521Z,96563.13
2018-03-16T05:51:43.428Z,96569.53
2018-03-16T05:54:13.258Z,96558.63
2018-03-16T05:56:43.146Z,96567.34
2018-03-16T05:59:12.979Z,96560.45
2018-03-16T06:01:53.759Z,96567.86
2018-03-16T06:04:23.565Z,96568.11
2018-03-16T06:06:54.727Z,96570.02
2018-03-16T06:09:24.845Z,96576.23
2018-03-16T06:11:55.775Z,96576.44
2018-03-16T06:14:25.764Z,96577.55
2018-03-16T06:16:56.426Z,96585.59
2018-03-16T06:19:26.101Z,96583.59
2018-03-16T06:24:20.225Z,96587.81
2018-03-16T06:26:50.147Z,96597.60
2018-03-16T06:29:20.145Z,96598.72
2018-03-16T06:31:49.768Z,96595.84
2018-03-16T06:34:20.196Z,96595.09
2018-03-16T06:36:49.769Z,96604.42
2018-03-16T06:39:19.541Z,96607.83
2018-03-16T06:42:09.002Z,96609.84
2018-03-16T06:44:38.950Z,96611.42
2018-03-16T06:47:08.797Z,96605.38
2018-03-16T06:49:39.118Z,96610.19
2018-03-16T06:52:09.168Z,96611.64
2018-03-16T06:54:38.876Z,96615.39
2018-03-16T06:57:09.193Z,96618.11
2018-03-16T06:59:39.496Z,96617.30
2018-03-16T07:02:11.538Z,96617.17
2018-03-16T07:04:41.403Z,96617.45
2018-03-16T07:07:11.996Z,96623.58
2018-03-16T07:09:42.968Z,96625.41
2018-03-16T07:12:12.568Z,96629.44
2018-03-16T07:14:43.004Z,96636.11
2018-03-16T07:17:15.237Z,96635.45
2018-03-16T07:19:45.115Z,96646.43
2018-03-16T07:22:14.797Z,96640.14
2018-03-16T07:24:44.779Z,96650.70
2018-03-16T07:27:14.489Z,96652.84
2018-03-16T07:29:44.281Z,96657.06
2018-03-16T07:32:13.959Z,96657.35
2018-03-16T07:34:50.551Z,96660.97
2018-03-16T07:37:21.046Z,96661.55
2018-03-16T07:39:50.960Z,96665.55
2018-03-16T07:42:22.059Z,96669.38
2018-03-16T07:44:51.746Z,96674.77
2018-03-16T07:47:21.769Z,96670.37
2018-03-16T07:49:51.819Z,96680.52
2018-03-16T07:52:23.649Z,96680.80
2018-03-16T07:54:53.384Z,96684.66
2018-03-16T07:57:23.116Z,96686.37
2018-03-16T07:59:52.849Z,96694.88
2018-03-16T08:02:23.860Z,96697.50
2018-03-16T08:04:54.180Z,96703.50
2018-03-16T08:07:23.811Z,96703.55
2018-03-16T08:10:01.394Z,96695.87
2018-03-16T08:12:31.115Z,96696.39
2018-03-16T08:15:01.033Z,96694.63
2018-03-16T08:17:30.573Z,96697.22
2018-03-16T08:20:00.030Z,96693.05
2018-03-16T08:22:29.866Z,96694.95
2018-03-16T08:24:59.632Z,96700.73
2018-03-16T08:27:29.564Z,96704.23
2018-03-16T08:29:59.639Z,96704.91
2018-03-16T08:32:29.821Z,96702.58
2018-03-16T08:34:59.817Z,96705.58
2018-03-16T08:37:29.906Z,96700.33
2018-03-16T08:39:58.472Z,96709.41
2018-03-16T08:42:26.939Z,96701.46
2018-03-16T08:44:55.808Z,96701.80
2018-03-16T08:47:24.810Z,96700.65
2018-03-16T08:49:53.338Z,96706.45
2018-03-16T08:52:21.962Z,96699.88
2018-03-16T08:54:52.943Z,96707.16
2018-03-16T08:57:22.115Z,96699.78
2018-03-16T08:59:50.723Z,96707.08
2018-03-16T09:02:20.357Z,96703.42
2018-03-16T09:04:49.285Z,96705.86
2018-03-16T09:07:17.838Z,96712.67
2018-03-16T09:09:46.468Z,96711.41
2018-03-16T09:12:15.172Z,96711.78
2018-03-16T09:14:43.981Z,96710.05
2018-03-16T09:17:12.511Z,96712.72
2018-03-16T09:19:41.144Z,96718.73
2018-03-16T09:22:09.676Z,96714.18
2018-03-16T09:24:38.211Z,96713.44
2018-03-16T09:27:06.794Z,96717.06
2018-03-16T09:29:35.971Z,96718.11
2018-03-16T09:32:05.314Z,96721.50
2018-03-16T09:34:34.722Z,96721.14
2018-03-16T09:37:03.234Z,96717.01
2018-03-16T09:39:32.356Z,96724.00
2018-03-16T09:42:00.940Z,96731.56
2018-03-16T09:44:29.772Z,96722.14
2018-03-16T09:46:58.351Z,96722.82
2018-03-16T09:49:27.023Z,96719.36
2018-03-16T09:51:55.534Z,96726.82
2018-03-16T09:54:28.033Z,96723.47
2018-03-16T09:56:56.563Z,96725.48
2018-03-16T09:59:25.308Z,96726.65
2018-03-16T10:01:54.031Z,96727.77
2018-03-16T10:04:23.853Z,96730.42
2018-03-16T10:06:52.463Z,96732.84
2018-03-16T10:09:21.005Z,96734.36
2018-03-16T10:11:49.686Z,96739.18
2018-03-16T10:14:18.291Z,96734.59
2018-03-16T10:16:46.831Z,96740.38
2018-03-16T10:19:15.644Z,96735.94
2018-03-16T10:21:44.271Z,96740.91
2018-03-16T10:24:12.920Z,96735.70
2018-03-16T10:26:41.474Z,96731.11
2018-03-16T10:29:10.005Z,96741.88
2018-03-16T10:31:38.661Z,96736.01
2018-03-16T10:34:09.465Z,96731.08
2018-03-16T10:36:37.952Z,96731.53
2018-03-16T10:39:06.577Z,96727.24
2018-03-16T10:41:35.139Z,96730.26
2018-03-16T10:44:08.260Z,96730.63
2018-03-16T10:46:36.830Z,96737.58
2018-03-16T10:49:05.381Z,96736.55
2018-03-16T10:51:34.032Z,96730.17
2018-03-16T10:54:04.992Z,96734.39
2018-03-16T10:56:33.592Z,96734.53
2018-03-16T10:59:02.221Z,96733.91
2018-03-16T11:01:34.971Z,96737.88
2018-03-16T11:04:07.872Z,96736.50
2018-03-16T11:06:37.652Z,96733.99
2018-03-16T11:09:07.200Z,96731.15
2018-03-16T11:11:41.322Z,96733.27
2018-03-16T11:14:15.625Z,96731.00
2018-03-16T11:16:45.347Z,96737.52
2018-03-16T11:19:13.931Z,96742.88
2018-03-16T11:21:42.503Z,96748.20
2018-03-16T11:24:15.935Z,96742.08
2018-03-16T11:26:44.521Z,96736.70
2018-03-16T11:29:13.212Z,96743.61
2018-03-16T11:31:41.962Z,96745.89
2018-03-16T11:34:11.549Z,96744.82
2018-03-16T11:36:40.179Z,96744.92
2018-03-16T11:39:09.148Z,96752.31
2018-03-16T11:41:37.784Z,96749.25
2018-03-16T11:44:06.437Z,96755.97
2018-03-16T11:46:35.144Z,96752.45
2018-03-16T11:49:04.153Z,96757.73
2018-03-16T11:51:32.744Z,96751.91
2018-03-16T11:54:01.339Z,96751.33
2018-03-16T11:56:31.494Z,96750.27
2018-03-16T11:59:00.352Z,96767.23
2018-03-16T12:01:28.919Z,96762.57
2018-03-16T12:03:57.587Z,96765.59
2018-03-16T12:06:26.296Z,96769.13
2018-03-16T12:08:58.702Z,96761.41
2018-03-16T12:11:27.433Z,96756.59
2018-03-16T12:13:55.978Z,96762.01
2018-03-16T12:16:24.608Z,96764.68
2018-03-16T12:18:53.163Z,96767.63
2018-03-16T12:21:21.712Z,96764.42
2018-03-16T12:23:51.871Z,96758.91
2018-03-16T12:26:20.462Z,96756.73
2018-03-16T12:28:50.014Z,96742.89
2018-03-16T12:31:17.708Z,96752.58
2018-03-16T12:36:36.825Z,96769.97
2018-03-16T12:40:03.509Z,96764.54
2018-03-16T12:42:32.387Z,96762.28
2018-03-16T12:45:01.128Z,96758.20
2018-03-16T12:47:30.096Z,96765.38
2018-03-16T12:49:58.814Z,96755.11
2018-03-16T12:52:28.225Z,96749.78
2018-03-16T12:54:56.816Z,96745.30
2018-03-16T12:57:26.858Z,96746.82
2018-03-16T12:59:55.626Z,96744.98
2018-03-16T13:02:24.180Z,96742.09
2018-03-16T13:04:52.794Z,96737.39
2018-03-16T13:07:22.017Z,96726.50
2018-03-16T13:09:50.572Z,96728.59
2018-03-16T13:12:19.342Z,96714.67
2018-03-16T13:14:47.937Z,96712.34
2018-03-16T13:17:16.672Z,96718.30
2018-03-16T13:19:46.184Z,96712.08
2018-03-16T13:22:15.165Z,96711.53
2018-03-16T13:24:43.859Z,96713.44
2018-03-16T13:27:12.510Z,96715.36
2018-03-16T13:29:47.060Z,96718.41
2018-03-16T13:32:15.752Z,96725.89
2018-03-16T13:34:44.467Z,96727.59
2018-03-16T13:37:13.061Z,96725.26
2018-03-16T13:39:41.659Z,96723.17
2018-03-16T13:42:10.277Z,96728.08
2018-03-16T13:44:39.544Z,96724.16
2018-03-16T13:47:08.171Z,96729.08
2018-03-16T13:49:37.772Z,96724.13
2018-03-16T13:52:06.634Z,96713.59
2018-03-16T13:54:35.591Z,96716.34
2018-03-16T13:57:07.064Z,96725.45
2018-03-16T13:59:39.761Z,96738.13
2018-03-16T14:02:08.475Z,96731.22
2018-03-16T14:04:37.268Z,96736.42
2018-03-16T14:07:06.633Z,96729.51
2018-03-16T14:09:48.411Z,96732.52
2018-03-16T14:12:18.003Z,96723.70
2018-03-16T14:14:46.598Z,96725.14
2018-03-16T14:17:15.412Z,96717.32
2018-03-16T14:19:45.690Z,96720.06
2018-03-16T14:22:14.312Z,96716.37
2018-03-16T14:24:46.934Z,96726.42
2018-03-16T14:27:15.542Z,96719.09
2018-03-16T14:29:44.042Z,96721.52
2018-03-16T14:32:31.026Z,96722.27
2018-03-16T14:35:00.212Z,96721.61
2018-03-16T14:37:30.372Z,96720.11
2018-03-16T14:42:51.821Z,96715.54
2018-03-16T14:45:21.353Z,96717.72
2018-03-16T14:47:53.343Z,96725.58
2018-03-16T20:45:21.774Z,96749.62
2018-03-16T20:47:51.837Z,96755.69
2018-03-16T20:50:21.022Z,96752.69
2018-03-16T20:52:50.912Z,96747.83
2018-03-16T20:55:19.989Z,96749.67
2018-03-16T20:57:49.013Z,96747.63
2018-03-16T21:00:23.295Z,96750.78
2018-03-16T21:02:52.335Z,96747.42
2018-03-16T21:05:21.382Z,96757.08
2018-03-16T21:07:52.835Z,96750.91
2018-03-16T21:10:22.128Z,96744.88
2018-03-16T21:12:51.220Z,96746.14
2018-03-16T21:15:32.737Z,96742.44
2018-03-16T21:18:02.598Z,96736.94
2018-03-16T21:20:31.544Z,96733.44
2018-03-16T21:23:01.168Z,96730.31
2018-03-16T21:25:30.415Z,96730.35
2018-03-16T21:27:59.816Z,96731.03
2018-03-16T21:30:28.922Z,96734.69
2018-03-16T21:32:58.846Z,96729.20
2018-03-16T21:35:29.217Z,96724.27
2018-03-16T21:37:58.388Z,96725.91
2018-03-16T21:40:27.376Z,96720.38
2018-03-16T21:42:58.692Z,96722.98
2018-03-16T21:45:27.805Z,96713.83
2018-03-16T21:47:56.914Z,96718.27
2018-03-16T21:50:25.971Z,96716.67
2018-03-16T21:52:54.939Z,96719.62
2018-03-16T21:55:23.957Z,96725.06
2018-03-16T21:57:53.471Z,96721.53
2018-03-16T22:00:22.672Z,96722.11
2018-03-16T22:02:51.771Z,96720.44
2018-03-16T22:05:21.891Z,96723.00
2018-03-16T22:07:55.305Z,96715.36
2018-03-16T22:10:24.300Z,96721.63
2018-03-16T22:12:53.376Z,96726.28
2018-03-16T22:15:23.903Z,96718.42
2018-03-16T22:17:53.179Z,96723.64
2018-03-16T22:20:23.454Z,96721.25
2018-03-16T22:22:53.288Z,96718.05
2018-03-16T22:25:23.962Z,96721.13
2018-03-16T22:27:56.820Z,96721.30
2018-03-16T22:30:27.850Z,96709.41
2018-03-16T22:32:57.441Z,96713.87
2018-03-16T22:35:26.931Z,96715.86
2018-03-16T22:37:56.181Z,96713.31
2018-03-16T22:40:25.310Z,96707.78
2018-03-16T22:42:54.676Z,96705.55
2018-03-16T22:45:24.475Z,96696.84
2018-03-16T22:47:53.625Z,96701.16
2018-03-16T22:50:23.879Z,96703.82
2018-03-16T22:52:53.178Z,96700.11
2018-03-16T22:55:23.334Z,96699.20
2018-03-16T22:57:52.476Z,96695.60
2018-03-16T23:00:21.715Z,96682.75
2018-03-16T23:02:50.654Z,96684.25
2018-03-16T23:05:22.194Z,96687.22
2018-03-16T23:07:51.242Z,96681.98
2018-03-16T23:10:20.349Z,96680.93
2018-03-16T23:12:49.542Z,96675.27
2018-03-16T23:15:18.663Z,96679.50
2018-03-16T23:17:47.641Z,96666.60
2018-03-16T23:20:17.355Z,96667.82
2018-03-16T23:22:46.501Z,96664.64
2018-03-16T23:25:15.586Z,96666.21
2018-03-16T23:27:45.121Z,96667.29
2018-03-16T23:30:14.261Z,96661.27
2018-03-16T23:32:43.296Z,96661.70
2018-03-16T23:35:12.404Z,96664.16
2018-03-16T23:37:41.466Z,96663.59
2018-03-16T23:40:10.637Z,96667.03
2018-03-16T23:42:39.656Z,96667.78
2018-03-16T23:45:08.800Z,96673.04
2018-03-16T23:47:37.858Z,96670.53
2018-03-16T23:50:07.397Z,96662.56
2018-03-16T23:52:36.430Z,96662.25
2018-03-16T23:55:05.507Z,96659.45
2018-03-16T23:57:34.511Z,96661.16
